Time;durP1;ratioP1;P1;durP2;ratioP2;P2;SDS_P1;SDS_P2;PMS_P1;PMS_P2;Temp;Humidity;BMP_temperature;BMP_pressure;BME280_temperature;BME280_humidity;BME280_pressure;Samples;Min_cycle;Max_cycle;Signal;HPM_P1;HPM_P2
2023/04/24 00:00:17;;;;;;;2.35;1.40;;;;;;;8.85;100.00;94955.53;1022328;28;20023;-73
2023/04/24 00:00:47;;;;;;;2.75;1.70;;;;;;;8.84;100.00;94943.50;1022191;29;20050;-73
2023/04/24 00:01:19;;;;;;;1.65;1.25;;;;;;;8.82;100.00;94940.38;1022179;28;20984;-73
2023/04/24 00:01:50;;;;;;;1.88;1.33;;;;;;;8.85;100.00;94955.53;1019263;28;20039;-73
2023/04/24 00:02:20;;;;;;;4.40;1.50;;;;;;;8.83;100.00;94955.03;1026339;28;20270;-73
2023/04/24 00:02:50;;;;;;;3.22;1.45;;;;;;;8.84;100.00;94951.34;1026024;28;20065;-72
2023/04/24 00:03:21;;;;;;;1.55;1.25;;;;;;;8.77;100.00;94937.78;1022314;28;20370;-73
2023/04/24 00:03:52;;;;;;;1.45;1.15;;;;;;;8.75;100.00;94935.44;1022395;28;20019;-72
2023/04/24 00:04:25;;;;;;;1.83;1.42;;;;;;;8.76;100.00;94939.63;1025853;28;20266;-73
2023/04/24 00:04:56;;;;;;;1.30;1.17;;;;;;;8.81;100.00;94944.81;1030173;28;20049;-73
2023/04/24 00:05:26;;;;;;;1.30;1.20;;;;;;;8.81;100.00;94944.03;1030156;28;20257;-73
2023/04/24 00:05:58;;;;;;;1.55;1.33;;;;;;;8.80;100.00;94942.47;1026112;28;20030;-73
2023/04/24 00:06:32;;;;;;;1.38;1.25;;;;;;;8.79;100.00;94941.72;1026438;28;20039;-73
2023/04/24 00:07:03;;;;;;;1.58;1.33;;;;;;;8.80;100.00;94953.72;1027089;28;20258;-73
2023/04/24 00:07:34;;;;;;;4.15;1.50;;;;;;;8.80;100.00;94943.25;1027592;28;20274;-73
2023/04/24 00:08:04;;;;;;;1.63;1.20;;;;;;;8.77;100.00;94943.78;1025916;28;20026;-74
2023/04/24 00:08:35;;;;;;;1.80;1.50;;;;;;;8.78;100.00;94952.41;1025655;28;20034;-73
2023/04/24 00:09:06;;;;;;;2.25;1.45;;;;;;;8.80;100.00;94950.34;1021996;29;20580;-72
2023/04/24 00:09:36;;;;;;;3.22;1.42;;;;;;;8.75;100.00;94938.03;1022293;28;20262;-74
2023/04/24 00:10:07;;;;;;;1.30;1.05;;;;;;;8.81;100.00;94946.66;1026341;28;20111;-74
2023/04/24 00:10:38;;;;;;;1.63;1.15;;;;;;;8.80;100.00;94950.34;1022577;28;20031;-72
2023/04/24 00:11:09;;;;;;;1.42;1.20;;;;;;;8.80;100.00;94955.56;1026078;28;20085;-70
2023/04/24 00:11:39;;;;;;;1.50;1.10;;;;;;;8.78;100.00;94952.41;1022355;28;20480;-74
2023/04/24 00:12:10;;;;;;;3.55;1.50;;;;;;;8.78;100.00;94957.66;1022085;28;20258;-73
2023/04/24 00:12:40;;;;;;;1.20;1.10;;;;;;;8.79;100.00;94957.41;1026191;28;20034;-73
2023/04/24 00:13:11;;;;;;;3.22;1.40;;;;;;;8.77;100.00;94958.72;1026063;28;20550;-73
2023/04/24 00:13:41;;;;;;;1.70;1.30;;;;;;;8.79;100.00;94954.00;1025436;28;20683;-73
2023/04/24 00:14:12;;;;;;;4.53;1.67;;;;;;;8.76;100.00;94957.16;1021978;28;20031;-73
2023/04/24 00:14:42;;;;;;;1.92;1.25;;;;;;;8.76;100.00;94946.69;1021850;28;20031;-73
2023/04/24 00:15:13;;;;;;;2.63;1.48;;;;;;;8.70;100.00;94948.56;1022247;29;20035;-73
2023/04/24 00:15:43;;;;;;;3.45;1.40;;;;;;;8.71;100.00;94961.34;1018256;29;20394;-75
2023/04/24 00:16:13;;;;;;;2.72;1.00;;;;;;;8.69;100.00;94952.22;1017924;29;20035;-73
2023/04/24 00:16:44;;;;;;;1.67;1.35;;;;;;;8.74;100.00;94954.81;1018362;29;20024;-73
2023/04/24 00:17:15;;;;;;;2.70;1.10;;;;;;;8.71;100.00;94950.09;1018077;29;20405;-75
2023/04/24 00:17:46;;;;;;;1.92;1.40;;;;;;;8.73;100.00;94953.25;1018403;29;20024;-74
2023/04/24 00:18:16;;;;;;;1.65;1.20;;;;;;;8.76;100.00;94959.78;1017461;29;20789;-73
2023/04/24 00:18:47;;;;;;;1.10;1.00;;;;;;;8.76;100.00;94957.16;1013947;29;20028;-74
2023/04/24 00:19:21;;;;;;;2.95;1.40;;;;;;;8.66;100.00;94948.31;1018410;29;20050;-72
2023/04/24 00:19:57;;;;;;;2.80;1.27;;;;;;;8.72;100.00;94952.47;1020075;28;20275;-74
2023/04/24 00:20:29;;;;;;;1.35;1.25;;;;;;;8.72;100.00;94960.31;1031269;28;20281;-73
2023/04/24 00:20:59;;;;;;;0.93;0.90;;;;;;;8.71;100.00;94966.56;1030291;28;20257;-73
2023/04/24 00:21:32;;;;;;;1.63;1.20;;;;;;;8.67;100.00;94957.72;1027482;28;20901;-73
2023/04/24 00:22:03;;;;;;;1.65;0.95;;;;;;;8.70;100.00;94961.63;1033585;28;20549;-72
2023/04/24 00:22:33;;;;;;;5.07;1.02;;;;;;;8.71;100.00;94957.94;1025821;28;20288;-72
2023/04/24 00:23:04;;;;;;;4.13;1.10;;;;;;;8.68;100.00;94961.88;1026998;28;20034;-73
2023/04/24 00:23:34;;;;;;;1.80;1.15;;;;;;;8.69;100.00;94963.47;1030009;28;20042;-72
2023/04/24 00:24:05;;;;;;;1.55;0.93;;;;;;;8.63;100.00;94951.47;1026320;28;20214;-74
2023/04/24 00:24:35;;;;;;;1.15;0.95;;;;;;;8.68;100.00;94964.50;1029748;28;20034;-74
2023/04/24 00:25:06;;;;;;;2.10;1.58;;;;;;;8.71;100.00;94966.56;1030365;28;20101;-73
2023/04/24 00:25:36;;;;;;;2.47;1.10;;;;;;;8.64;100.00;94954.84;1038249;28;20030;-73
2023/04/24 00:26:07;;;;;;;1.90;1.20;;;;;;;8.70;100.00;94964.25;1034439;28;20034;-73
2023/04/24 00:26:38;;;;;;;1.38;1.13;;;;;;;8.68;100.00;94959.25;1033808;28;20052;-72
2023/04/24 00:27:08;;;;;;;1.17;0.90;;;;;;;8.67;100.00;94962.94;1030095;28;20065;-73
2023/04/24 00:27:39;;;;;;;1.48;0.90;;;;;;;8.66;100.00;94958.78;1030176;28;20910;-73
2023/04/24 00:28:10;;;;;;;1.20;0.90;;;;;;;8.64;100.00;94960.84;1029703;28;20034;-73
2023/04/24 00:28:40;;;;;;;1.88;1.33;;;;;;;8.66;100.00;94953.53;1025321;28;20042;-72
2023/04/24 00:29:11;;;;;;;1.05;0.98;;;;;;;8.66;100.00;94950.91;1022101;29;20034;-74
2023/04/24 00:29:41;;;;;;;3.15;1.23;;;;;;;8.65;100.00;94957.22;1022086;29;20027;-72
2023/04/24 00:30:11;;;;;;;1.08;0.82;;;;;;;8.64;100.00;94949.63;1021991;28;20528;-74
2023/04/24 00:30:42;;;;;;;1.08;0.98;;;;;;;8.65;100.00;94951.97;1025914;28;20050;-73
2023/04/24 00:31:12;;;;;;;1.30;1.00;;;;;;;8.64;100.00;94945.16;1026226;28;20416;-73
2023/04/24 00:31:43;;;;;;;1.20;0.90;;;;;;;8.63;100.00;94954.06;1023939;28;20037;-73
2023/04/24 00:32:13;;;;;;;2.05;1.17;;;;;;;8.62;100.00;94951.75;1018085;29;20024;-73
2023/04/24 00:32:44;;;;;;;7.43;1.40;;;;;;;8.63;100.00;94955.91;1025917;28;20054;-74
2023/04/24 00:33:14;;;;;;;1.13;0.90;;;;;;;8.57;100.00;94944.69;1022066;29;20066;-75
2023/04/24 00:33:45;;;;;;;1.45;1.00;;;;;;;8.58;100.00;94951.47;1018219;29;20429;-74
2023/04/24 00:34:15;;;;;;;0.80;0.68;;;;;;;8.61;100.00;94955.38;1017436;28;20777;-73
2023/04/24 00:34:46;;;;;;;1.08;0.90;;;;;;;8.62;100.00;94954.34;1025090;28;20408;-73
2023/04/24 00:35:16;;;;;;;2.50;1.00;;;;;;;8.61;100.00;94955.38;1032927;28;20033;-73
2023/04/24 00:35:47;;;;;;;0.75;0.73;;;;;;;8.62;100.00;94949.13;1026102;28;20046;-74
2023/04/24 00:36:19;;;;;;;1.58;1.08;;;;;;;8.61;100.00;94948.31;1026058;28;20031;-73
2023/04/24 00:36:52;;;;;;;1.20;1.00;;;;;;;8.59;100.00;94942.59;1025806;28;20029;-73
2023/04/24 00:37:23;;;;;;;0.77;0.77;;;;;;;8.57;100.00;94941.28;1023945;28;20311;-72
2023/04/24 00:37:53;;;;;;;1.10;0.80;;;;;;;8.61;100.00;94948.31;1030775;28;20317;-73
2023/04/24 00:38:24;;;;;;;0.70;0.70;;;;;;;8.60;100.00;94946.75;1021935;29;20035;-74
2023/04/24 00:38:55;;;;;;;1.70;0.80;;;;;;;8.61;100.00;94944.94;1021491;29;20051;-73
2023/04/24 00:39:25;;;;;;;0.88;0.70;;;;;;;8.60;100.00;94946.75;1021875;29;20616;-73
2023/04/24 00:39:56;;;;;;;2.88;1.13;;;;;;;8.57;100.00;94943.91;1026374;28;20050;-73
2023/04/24 00:40:27;;;;;;;3.65;0.95;;;;;;;8.56;100.00;94942.34;1025832;28;20077;-74
2023/04/24 00:40:57;;;;;;;1.30;0.90;;;;;;;8.52;100.00;94930.84;1022323;28;20109;-72
2023/04/24 00:41:28;;;;;;;2.80;1.00;;;;;;;8.58;100.00;94950.69;1026111;28;20290;-74
2023/04/24 00:41:58;;;;;;;1.48;1.10;;;;;;;8.58;100.00;94951.47;1025689;28;20037;-74
2023/04/24 00:42:29;;;;;;;1.23;0.93;;;;;;;8.56;100.00;94937.91;1026144;28;20054;-73
2023/04/24 00:42:59;;;;;;;1.00;0.90;;;;;;;8.57;100.00;94944.69;1026344;28;20090;-74
2023/04/24 00:43:30;;;;;;;1.20;1.00;;;;;;;8.56;100.00;94944.97;1029764;28;20030;-73
2023/04/24 00:44:00;;;;;;;1.40;0.70;;;;;;;8.51;100.00;94937.91;1022222;28;20031;-74
2023/04/24 00:44:31;;;;;;;0.85;0.80;;;;;;;8.58;100.00;94950.69;1025958;28;20046;-73
2023/04/24 00:45:01;;;;;;;0.80;0.70;;;;;;;8.57;100.00;94954.38;1018003;29;20452;-73
2023/04/24 00:45:32;;;;;;;1.20;0.93;;;;;;;8.55;100.00;94946.81;1021682;29;20035;-74
2023/04/24 00:46:02;;;;;;;2.60;0.93;;;;;;;8.51;100.00;94945.75;1022204;29;20039;-74
2023/04/24 00:46:33;;;;;;;1.45;1.30;;;;;;;8.54;100.00;94941.81;1025992;28;20448;-72
2023/04/24 00:47:03;;;;;;;1.10;0.93;;;;;;;8.55;100.00;94946.81;1022046;29;20078;-73
2023/04/24 00:47:34;;;;;;;2.60;1.10;;;;;;;8.51;100.00;94948.38;1021983;29;20050;-73
2023/04/24 00:48:04;;;;;;;1.58;0.93;;;;;;;8.53;100.00;94958.56;1030148;28;20036;-73
2023/04/24 00:48:34;;;;;;;1.10;0.88;;;;;;;8.52;100.00;94949.94;1025349;28;20571;-74
2023/04/24 00:49:05;;;;;;;1.02;0.75;;;;;;;8.52;100.00;94957.78;1029890;28;20026;-72
2023/04/24 00:49:36;;;;;;;1.92;0.95;;;;;;;8.46;100.00;94935.34;1029893;28;20038;-73
2023/04/24 00:50:07;;;;;;;0.75;0.75;;;;;;;8.50;100.00;94949.44;1030031;28;20030;-74
2023/04/24 00:50:38;;;;;;;2.65;0.95;;;;;;;8.48;100.00;94941.88;1026178;28;20035;-73
2023/04/24 00:51:08;;;;;;;1.55;0.90;;;;;;;8.48;100.00;94948.91;1026166;28;20057;-72
2023/04/24 00:51:40;;;;;;;0.88;0.88;;;;;;;8.48;100.00;94941.06;1025941;28;20030;-73
2023/04/24 00:52:12;;;;;;;1.48;0.88;;;;;;;8.44;100.00;94946.03;1025948;28;20663;-73
2023/04/24 00:52:42;;;;;;;0.95;0.82;;;;;;;8.45;100.00;94941.59;1018516;29;20295;-75
2023/04/24 00:53:13;;;;;;;3.50;0.80;;;;;;;8.48;100.00;94947.09;1022044;29;20349;-73
2023/04/24 00:53:43;;;;;;;1.50;1.20;;;;;;;8.45;100.00;94939.78;1021685;29;20449;-73
2023/04/24 00:54:14;;;;;;;1.95;0.80;;;;;;;8.45;100.00;94942.41;1026122;28;20023;-72
2023/04/24 00:54:45;;;;;;;1.33;0.90;;;;;;;8.39;100.00;94927.00;1026389;28;20038;-74
2023/04/24 00:55:15;;;;;;;2.22;0.95;;;;;;;8.47;100.00;94942.91;1029998;28;20113;-73
2023/04/24 00:55:46;;;;;;;1.58;0.60;;;;;;;8.32;100.00;94916.81;1025824;28;20788;-72
2023/04/24 00:56:16;;;;;;;1.23;1.00;;;;;;;8.40;100.00;94928.56;1022222;28;20039;-72
2023/04/24 00:56:47;;;;;;;0.70;0.70;;;;;;;8.48;100.00;94935.84;1017991;29;20054;-74
2023/04/24 00:57:17;;;;;;;1.02;0.90;;;;;;;8.43;100.00;94933.25;1014232;29;20088;-71
2023/04/24 00:57:48;;;;;;;1.05;0.90;;;;;;;8.41;100.00;94930.91;1016567;29;20080;-74
2023/04/24 00:58:18;;;;;;;2.30;1.08;;;;;;;8.43;100.00;94933.25;1018099;29;20537;-73
2023/04/24 00:58:49;;;;;;;1.80;1.05;;;;;;;8.43;100.00;94939.25;1021517;29;20020;-74
2023/04/24 00:59:19;;;;;;;0.88;0.80;;;;;;;8.41;100.00;94924.88;1026060;28;20030;-74
2023/04/24 00:59:51;;;;;;;1.95;1.30;;;;;;;8.44;100.00;94940.81;1029882;28;20041;-73
2023/04/24 01:00:22;;;;;;;0.60;0.60;;;;;;;8.45;100.00;94941.59;1030719;28;20023;-73
2023/04/24 01:00:53;;;;;;;1.10;0.90;;;;;;;8.39;100.00;94934.84;1030708;28;20261;-72
2023/04/24 01:01:23;;;;;;;1.08;0.70;;;;;;;8.43;100.00;94935.88;1031312;28;20022;-73
2023/04/24 01:01:54;;;;;;;1.73;0.60;;;;;;;8.42;100.00;94931.69;1030662;28;20851;-73
2023/04/24 01:02:24;;;;;;;3.22;1.00;;;;;;;8.43;100.00;94938.47;1030636;28;20165;-74
2023/04/24 01:02:55;;;;;;;1.38;0.90;;;;;;;8.43;100.00;94936.66;1034802;28;20022;-73
2023/04/24 01:03:28;;;;;;;1.40;1.00;;;;;;;8.43;100.00;94928.81;1026969;28;20023;-72
2023/04/24 01:03:59;;;;;;;1.30;0.73;;;;;;;8.42;100.00;94937.72;1022731;29;20033;-74
2023/04/24 01:04:29;;;;;;;1.45;0.70;;;;;;;8.39;100.00;94933.00;1026631;28;20289;-73
2023/04/24 01:05:01;;;;;;;1.38;0.90;;;;;;;8.42;100.00;94932.47;1023419;28;20629;-72
2023/04/24 01:05:31;;;;;;;1.00;0.70;;;;;;;8.40;100.00;94941.63;1022997;28;20054;-72
2023/04/24 01:06:02;;;;;;;0.98;0.85;;;;;;;8.38;100.00;94935.88;1018723;29;20916;-73
2023/04/24 01:06:32;;;;;;;1.27;1.02;;;;;;;8.38;100.00;94930.66;1026814;28;20038;-73
2023/04/24 01:07:04;;;;;;;1.17;0.90;;;;;;;8.38;100.00;94931.44;1027008;28;20022;-73
2023/04/24 01:07:34;;;;;;;1.65;1.13;;;;;;;8.33;100.00;94933.28;1022796;29;20111;-75
2023/04/24 01:08:05;;;;;;;1.00;1.00;;;;;;;8.33;100.00;94928.81;1018674;29;20263;-72
2023/04/24 01:08:35;;;;;;;0.80;0.80;;;;;;;8.36;100.00;94928.28;1022235;29;20042;-72
2023/04/24 01:09:08;;;;;;;1.17;1.00;;;;;;;8.35;100.00;94936.38;1022989;28;20493;-73
2023/04/24 01:09:39;;;;;;;0.88;0.68;;;;;;;8.35;100.00;94931.97;1026919;28;20022;-73
2023/04/24 01:10:10;;;;;;;1.10;0.80;;;;;;;8.32;100.00;94926.50;1022839;29;20425;-73
2023/04/24 01:10:40;;;;;;;1.27;0.88;;;;;;;8.30;100.00;94920.72;1022828;29;20318;-73
2023/04/24 01:11:11;;;;;;;0.90;0.90;;;;;;;8.36;100.00;94932.72;1026899;28;20086;-74
2023/04/24 01:11:42;;;;;;;1.27;0.88;;;;;;;8.35;100.00;94933.75;1026880;28;20504;-73
2023/04/24 01:12:13;;;;;;;2.28;1.10;;;;;;;8.34;100.00;94929.59;1030898;28;20042;-73
2023/04/24 01:12:43;;;;;;;1.58;0.90;;;;;;;8.35;100.00;94931.97;1031047;28;20916;-73
2023/04/24 01:13:14;;;;;;;1.33;0.52;;;;;;;8.31;100.00;94927.50;1034751;28;20029;-73
2023/04/24 01:13:44;;;;;;;0.88;0.82;;;;;;;8.37;100.00;94934.28;1026706;28;20074;-73
2023/04/24 01:14:15;;;;;;;1.45;0.90;;;;;;;8.36;100.00;94935.34;1023072;28;20049;-73
2023/04/24 01:14:45;;;;;;;1.42;0.90;;;;;;;8.35;100.00;94936.38;1021563;28;20027;-74
2023/04/24 01:15:16;;;;;;;1.10;1.00;;;;;;;8.34;100.00;94929.59;1026780;28;20307;-72
2023/04/24 01:15:46;;;;;;;0.98;0.80;;;;;;;8.29;100.00;94932.25;1022839;28;20023;-73
2023/04/24 01:16:20;;;;;;;0.80;0.80;;;;;;;8.36;100.00;94935.34;1022686;28;20043;-71
2023/04/24 01:16:50;;;;;;;0.70;0.70;;;;;;;8.30;100.00;94921.50;1022525;29;20035;-74
2023/04/24 01:17:21;;;;;;;1.25;0.60;;;;;;;8.34;100.00;94929.59;1022858;29;20735;-74
2023/04/24 01:17:51;;;;;;;1.67;1.00;;;;;;;8.33;100.00;94925.44;1022763;28;20035;-72
2023/04/24 01:18:22;;;;;;;0.82;0.70;;;;;;;8.34;100.00;94929.59;1026804;28;20034;-73
2023/04/24 01:18:52;;;;;;;0.93;0.50;;;;;;;8.34;100.00;94929.59;1022161;28;20046;-73
2023/04/24 01:19:23;;;;;;;1.00;0.63;;;;;;;8.33;100.00;94923.59;1026875;28;20287;-73
2023/04/24 01:19:53;;;;;;;2.22;1.00;;;;;;;8.27;100.00;94922.81;1013295;29;20043;-73
2023/04/24 01:20:25;;;;;;;1.00;0.90;;;;;;;8.30;100.00;94925.97;1014894;29;20032;-73
2023/04/24 01:20:57;;;;;;;1.05;0.85;;;;;;;8.24;100.00;94915.50;1022849;29;20105;-72
2023/04/24 01:21:28;;;;;;;0.90;0.70;;;;;;;8.31;100.00;94930.13;1026332;28;20270;-73
2023/04/24 01:21:59;;;;;;;5.32;1.00;;;;;;;8.31;100.00;94927.50;1018838;29;20263;-74
2023/04/24 01:22:29;;;;;;;0.77;0.75;;;;;;;8.24;100.00;94920.75;1019702;29;20035;-74
2023/04/24 01:23:00;;;;;;;1.27;0.82;;;;;;;8.29;100.00;94927.78;1019254;29;20031;-73
2023/04/24 01:23:30;;;;;;;1.15;0.70;;;;;;;8.30;100.00;94925.97;1023392;29;20031;-73
2023/04/24 01:24:01;;;;;;;4.82;1.38;;;;;;;8.27;100.00;94914.97;1019203;29;20130;-74
2023/04/24 01:24:31;;;;;;;2.05;0.60;;;;;;;8.21;100.00;94905.59;1019154;29;20103;-73
2023/04/24 01:25:02;;;;;;;2.38;1.10;;;;;;;8.30;100.00;94925.97;1018151;29;20095;-73
2023/04/24 01:25:32;;;;;;;1.30;0.90;;;;;;;8.24;100.00;94912.91;1014814;29;20136;-74
2023/04/24 01:26:03;;;;;;;1.05;0.80;;;;;;;8.31;100.00;94925.69;1011274;29;20112;-73
2023/04/24 01:26:34;;;;;;;1.25;1.20;;;;;;;8.26;100.00;94918.66;1018737;29;20036;-74
2023/04/24 01:27:04;;;;;;;0.90;0.88;;;;;;;8.24;100.00;94909.50;1018743;29;20048;-73
2023/04/24 01:27:35;;;;;;;2.67;0.90;;;;;;;8.27;100.00;94920.22;1022611;29;20030;-72
2023/04/24 01:28:05;;;;;;;1.45;0.80;;;;;;;8.29;100.00;94921.78;1022924;28;20544;-73
2023/04/24 01:28:36;;;;;;;1.27;0.70;;;;;;;8.29;100.00;94921.78;1026217;28;20027;-73
2023/04/24 01:29:06;;;;;;;1.60;0.85;;;;;;;8.26;100.00;94912.66;1030630;28;20697;-72
2023/04/24 01:29:37;;;;;;;1.02;0.70;;;;;;;8.25;100.00;94914.47;1030713;28;20026;-72
2023/04/24 01:30:08;;;;;;;1.30;0.90;;;;;;;8.27;100.00;94912.38;1030558;28;20467;-73
2023/04/24 01:30:38;;;;;;;1.13;0.55;;;;;;;8.19;100.00;94907.72;1023438;28;20023;-72
2023/04/24 01:31:09;;;;;;;0.85;0.85;;;;;;;8.26;100.00;94917.88;1014856;29;20022;-72
2023/04/24 01:31:39;;;;;;;1.88;0.90;;;;;;;8.20;100.00;94909.25;1011049;29;20566;-73
2023/04/24 01:32:10;;;;;;;5.93;2.47;;;;;;;8.19;100.00;94906.94;1014939;29;20075;-74
2023/04/24 01:32:40;;;;;;;0.95;0.90;;;;;;;8.25;100.00;94913.72;1018640;29;20039;-72
2023/04/24 01:33:11;;;;;;;2.50;0.90;;;;;;;8.24;100.00;94915.50;1018274;29;20019;-73
2023/04/24 01:33:42;;;;;;;1.02;0.80;;;;;;;8.26;100.00;94917.88;1010941;29;20025;-73
2023/04/24 01:34:12;;;;;;;3.20;0.70;;;;;;;8.26;100.00;94918.66;1006365;29;20037;-71
2023/04/24 01:34:43;;;;;;;0.95;0.70;;;;;;;8.25;100.00;94919.72;1010393;29;20268;-73
2023/04/24 01:35:13;;;;;;;1.00;0.85;;;;;;;8.21;100.00;94910.81;1018768;28;20023;-72
2023/04/24 01:35:44;;;;;;;1.08;0.82;;;;;;;8.24;100.00;94915.50;1018915;29;20097;-73
2023/04/24 01:36:14;;;;;;;1.15;0.80;;;;;;;8.26;100.00;94912.66;1014488;29;20028;-72
2023/04/24 01:36:45;;;;;;;1.05;0.70;;;;;;;8.23;100.00;94908.72;1014532;29;20115;-73
2023/04/24 01:37:16;;;;;;;1.02;0.75;;;;;;;8.18;100.00;94911.38;1018903;29;20475;-73
2023/04/24 01:37:47;;;;;;;3.35;0.90;;;;;;;8.25;100.00;94913.72;1018611;29;20263;-73
2023/04/24 01:38:17;;;;;;;0.68;0.68;;;;;;;8.24;100.00;94912.91;1018978;29;20098;-73
2023/04/24 01:38:48;;;;;;;0.95;0.85;;;;;;;8.18;100.00;94906.16;1018163;29;20028;-73
2023/04/24 01:39:20;;;;;;;2.45;0.82;;;;;;;8.23;100.00;94913.97;1014747;29;20031;-73
2023/04/24 01:39:50;;;;;;;1.20;0.88;;;;;;;8.20;100.00;94909.25;1015003;29;20727;-73
2023/04/24 01:40:21;;;;;;;0.70;0.68;;;;;;;8.25;100.00;94911.88;1017197;29;20286;-72
2023/04/24 01:40:51;;;;;;;3.67;0.77;;;;;;;8.24;100.00;94907.66;1014865;29;20684;-73
2023/04/24 01:41:22;;;;;;;1.13;0.88;;;;;;;8.24;100.00;94909.50;1023650;28;20687;-73
2023/04/24 01:41:53;;;;;;;0.80;0.80;;;;;;;8.25;100.00;94911.88;1026374;28;20484;-72
2023/04/24 01:42:24;;;;;;;2.25;0.73;;;;;;;8.20;100.00;94898.81;1015900;29;20043;-73
2023/04/24 01:42:54;;;;;;;1.25;1.10;;;;;;;8.22;100.00;94906.41;1022704;29;20282;-73
2023/04/24 01:43:24;;;;;;;0.93;0.68;;;;;;;8.19;100.00;94907.72;1022084;29;20473;-75
2023/04/24 01:43:55;;;;;;;2.20;0.63;;;;;;;8.24;100.00;94909.50;1018878;29;20027;-72
2023/04/24 01:44:25;;;;;;;1.15;0.70;;;;;;;8.22;100.00;94907.19;1019884;29;20024;-73
2023/04/24 01:44:56;;;;;;;1.20;0.75;;;;;;;8.22;100.00;94907.19;1018743;29;20124;-74
2023/04/24 01:45:27;;;;;;;1.38;0.80;;;;;;;8.17;100.00;94896.72;1023480;28;20027;-73
2023/04/24 01:45:57;;;;;;;1.90;0.80;;;;;;;8.21;100.00;94895.13;1022587;28;20023;-73
2023/04/24 01:46:28;;;;;;;2.25;0.80;;;;;;;8.24;100.00;94899.84;1024389;28;20079;-73
2023/04/24 01:46:59;;;;;;;0.63;0.60;;;;;;;8.24;100.00;94899.06;1020780;28;20023;-73
2023/04/24 01:47:30;;;;;;;2.53;1.85;;;;;;;8.20;100.00;94904.03;1022086;28;20071;-73
2023/04/24 01:48:01;;;;;;;2.22;0.90;;;;;;;8.24;100.00;94899.06;1026752;28;20382;-73
2023/04/24 01:48:31;;;;;;;0.95;0.85;;;;;;;8.23;100.00;94897.50;1026489;28;20034;-74
2023/04/24 01:49:02;;;;;;;0.60;0.60;;;;;;;8.22;100.00;94895.94;1022359;29;20023;-73
2023/04/24 01:49:32;;;;;;;1.42;0.90;;;;;;;8.25;100.00;94898.03;1023003;29;20031;-73
2023/04/24 01:50:03;;;;;;;0.82;0.75;;;;;;;8.18;100.00;94887.88;1022387;29;20031;-74
2023/04/24 01:50:34;;;;;;;3.42;0.80;;;;;;;8.24;100.00;94892.00;1018482;29;20055;-74
2023/04/24 01:51:04;;;;;;;2.38;0.93;;;;;;;8.19;100.00;94892.03;1018814;29;20319;-73
2023/04/24 01:51:35;;;;;;;1.48;1.00;;;;;;;8.24;100.00;94894.59;1022728;29;20059;-73
2023/04/24 01:52:05;;;;;;;2.20;0.82;;;;;;;8.23;100.00;94898.28;1024676;28;20444;-72
2023/04/24 01:52:36;;;;;;;0.82;0.82;;;;;;;8.24;100.00;94894.59;1033154;28;20042;-72
2023/04/24 01:53:06;;;;;;;2.63;0.70;;;;;;;8.24;100.00;94894.59;1034739;28;20025;-73
2023/04/24 01:53:37;;;;;;;0.70;0.70;;;;;;;8.25;100.00;94895.41;1031395;28;20057;-73
2023/04/24 01:54:07;;;;;;;2.38;0.90;;;;;;;8.21;100.00;94886.53;1018399;29;20079;-74
2023/04/24 01:54:38;;;;;;;1.05;0.95;;;;;;;8.23;100.00;94893.06;1024075;28;20022;-73
2023/04/24 01:55:09;;;;;;;0.95;0.85;;;;;;;8.24;100.00;94899.84;1026839;28;20042;-72
2023/04/24 01:55:40;;;;;;;3.03;0.90;;;;;;;8.22;100.00;94899.34;1020576;28;20162;-74
2023/04/24 01:56:10;;;;;;;1.35;1.20;;;;;;;8.22;100.00;94901.16;1028746;28;20743;-74
2023/04/24 01:56:42;;;;;;;2.15;0.90;;;;;;;8.22;100.00;94896.72;1022497;29;20267;-72
2023/04/24 01:57:13;;;;;;;1.17;0.80;;;;;;;8.22;100.00;94895.94;1026443;28;20046;-74
2023/04/24 01:57:44;;;;;;;1.73;0.80;;;;;;;8.22;100.00;94890.72;1018522;29;20741;-72
2023/04/24 01:58:14;;;;;;;3.45;1.10;;;;;;;8.22;100.00;94896.72;1018615;29;20283;-74
2023/04/24 01:58:45;;;;;;;0.80;0.80;;;;;;;8.16;100.00;94887.34;1014165;29;20584;-71
2023/04/24 01:59:15;;;;;;;2.33;0.80;;;;;;;8.21;100.00;94902.19;1013483;29;20027;-73
2023/04/24 01:59:46;;;;;;;2.10;1.10;;;;;;;8.23;100.00;94898.28;1014631;29;20035;-73
2023/04/24 02:00:16;;;;;;;1.45;1.10;;;;;;;8.23;100.00;94898.28;1014583;29;20494;-73
2023/04/24 02:00:47;;;;;;;1.15;0.60;;;;;;;8.22;100.00;94896.72;1014787;29;20099;-74
2023/04/24 02:01:20;;;;;;;2.83;1.08;;;;;;;8.18;100.00;94882.63;1025790;28;20035;-73
2023/04/24 02:01:51;;;;;;;1.00;0.90;;;;;;;8.24;100.00;94894.59;1035177;28;20499;-74
2023/04/24 02:02:23;;;;;;;1.45;0.93;;;;;;;8.24;100.00;94893.81;1037966;28;20264;-73
2023/04/24 02:02:54;;;;;;;2.30;0.88;;;;;;;8.19;100.00;94892.03;1023524;28;20493;-72
2023/04/24 02:03:25;;;;;;;1.27;0.90;;;;;;;8.25;100.00;94890.19;1017245;28;20320;-73
2023/04/24 02:03:56;;;;;;;2.22;0.70;;;;;;;8.23;100.00;94893.06;1018601;29;20499;-73
2023/04/24 02:04:26;;;;;;;0.98;0.82;;;;;;;8.22;100.00;94895.94;1018612;29;20272;-72
2023/04/24 02:04:57;;;;;;;2.75;0.98;;;;;;;8.22;100.00;94893.34;1019086;28;20020;-74
2023/04/24 02:05:27;;;;;;;1.17;0.80;;;;;;;8.17;100.00;94888.13;1026756;28;20826;-73
2023/04/24 02:05:58;;;;;;;0.98;0.68;;;;;;;8.22;100.00;94894.09;1030661;28;20030;-73
2023/04/24 02:06:28;;;;;;;1.70;0.98;;;;;;;8.19;100.00;94897.25;1030574;28;20045;-72
2023/04/24 02:06:59;;;;;;;1.30;1.00;;;;;;;8.21;100.00;94895.13;1034718;28;20050;-75
2023/04/24 02:07:29;;;;;;;1.90;0.90;;;;;;;8.22;100.00;94895.94;1038880;28;20026;-73
2023/04/24 02:08:00;;;;;;;1.27;0.90;;;;;;;8.23;100.00;94897.50;1034455;28;20082;-74
2023/04/24 02:08:30;;;;;;;4.05;1.17;;;;;;;8.21;100.00;94897.75;1026683;28;20023;-73
2023/04/24 02:09:01;;;;;;;1.67;0.80;;;;;;;8.19;100.00;94892.03;1029865;28;20018;-75
2023/04/24 02:09:31;;;;;;;1.48;0.90;;;;;;;8.16;100.00;94897.78;1022394;29;20026;-73
2023/04/24 02:10:03;;;;;;;1.50;0.90;;;;;;;8.21;100.00;94902.19;1026475;28;20081;-73
2023/04/24 02:10:34;;;;;;;1.48;0.90;;;;;;;8.19;100.00;94899.88;1018443;29;20024;-73
2023/04/24 02:11:05;;;;;;;1.52;1.08;;;;;;;8.21;100.00;94894.38;1018360;29;20266;-73
2023/04/24 02:11:36;;;;;;;0.63;0.63;;;;;;;8.15;100.00;94887.59;1016057;29;20036;-73
2023/04/24 02:12:07;;;;;;;1.10;0.90;;;;;;;8.21;100.00;94895.13;1019000;28;20272;-73
2023/04/24 02:12:37;;;;;;;0.80;0.80;;;;;;;8.17;100.00;94898.56;1026695;28;20066;-72
2023/04/24 02:13:08;;;;;;;0.70;0.70;;;;;;;8.22;100.00;94896.72;1025763;28;20195;-73
2023/04/24 02:13:38;;;;;;;0.80;0.80;;;;;;;8.18;100.00;94890.47;1030600;28;20026;-74
2023/04/24 02:14:09;;;;;;;1.77;0.90;;;;;;;8.21;100.00;94897.75;1030557;28;20022;-73
2023/04/24 02:14:39;;;;;;;1.23;1.00;;;;;;;8.20;100.00;94896.19;1022476;28;20024;-73
2023/04/24 02:15:10;;;;;;;1.52;0.90;;;;;;;8.20;100.00;94898.81;1030408;28;20099;-73
2023/04/24 02:15:41;;;;;;;0.77;0.77;;;;;;;8.14;100.00;94886.81;1031119;28;20022;-73
2023/04/24 02:16:11;;;;;;;1.73;1.30;;;;;;;8.20;100.00;94898.03;1026463;28;20030;-74
2023/04/24 02:16:42;;;;;;;2.83;0.90;;;;;;;8.20;100.00;94893.59;1026805;28;20015;-73
2023/04/24 02:17:15;;;;;;;1.52;0.88;;;;;;;8.19;100.00;94899.09;1026482;28;20019;-74
2023/04/24 02:17:45;;;;;;;0.95;0.85;;;;;;;8.18;100.00;94900.13;1027402;28;20027;-72
2023/04/24 02:18:16;;;;;;;1.85;0.88;;;;;;;8.20;100.00;94898.03;1030978;28;20268;-73
2023/04/24 02:18:46;;;;;;;2.47;0.95;;;;;;;8.20;100.00;94893.59;1029919;28;20084;-73
2023/04/24 02:19:17;;;;;;;4.40;1.38;;;;;;;8.18;100.00;94895.69;1030373;28;20559;-73
2023/04/24 02:19:47;;;;;;;1.10;0.90;;;;;;;8.17;100.00;94894.13;1029251;28;20026;-71
2023/04/24 02:20:18;;;;;;;0.70;0.70;;;;;;;8.16;100.00;94897.78;1026388;28;20015;-73
2023/04/24 02:20:48;;;;;;;0.85;0.80;;;;;;;8.12;100.00;94893.38;1027123;28;20074;-73
2023/04/24 02:21:19;;;;;;;0.93;0.82;;;;;;;8.16;100.00;94900.41;1022387;29;20027;-73
2023/04/24 02:21:50;;;;;;;2.40;0.90;;;;;;;8.11;100.00;94891.78;1023203;28;20091;-75
2023/04/24 02:22:20;;;;;;;1.33;1.00;;;;;;;8.10;100.00;94880.56;1026606;28;20043;-73
2023/04/24 02:22:51;;;;;;;2.22;1.00;;;;;;;8.16;100.00;94897.78;1031493;28;20046;-73
2023/04/24 02:23:21;;;;;;;1.05;0.93;;;;;;;8.17;100.00;94890.72;1031013;28;20123;-73
2023/04/24 02:23:52;;;;;;;1.30;0.90;;;;;;;8.11;100.00;94891.78;1031242;28;20022;-71
2023/04/24 02:24:22;;;;;;;1.15;1.00;;;;;;;8.15;100.00;94901.47;1035124;28;20033;-73
2023/04/24 02:24:52;;;;;;;1.27;1.10;;;;;;;8.16;100.00;94895.19;1030960;28;20089;-73